Time;durP1;ratioP1;P1;durP2;ratioP2;P2;SDS_P1;SDS_P2;PMS_P1;PMS_P2;Temp;Humidity;BMP_temperature;BMP_pressure;BME280_temperature;BME280_humidity;BME280_pressure;Samples;Min_cycle;Max_cycle;Signal;HPM_P1;HPM_P2
2022/08/12 00:44:51;;;;;;;0.77;0.73;;;;;;;;;;4996383;28;20026;-75
2022/08/12 00:47:19;;;;;;;2.05;1.40;;;;;;;;;;4991937;28;20052;-76
2022/08/12 00:49:48;;;;;;;2.53;1.13;;;;;;;;;;4989814;28;20049;-77
2022/08/12 00:52:13;;;;;;;1.20;0.80;;;;;;;;;;4996045;28;20418;-76
2022/08/12 00:54:44;;;;;;;1.60;1.08;;;;;;;;;;4995416;28;20050;-76
2022/08/12 00:57:11;;;;;;;5.57;1.73;;;;;;;;;;4992328;28;20037;-76
2022/08/12 00:59:47;;;;;;;1.75;1.02;;;;;;;;;;4996389;28;20034;-76
2022/08/12 01:02:22;;;;;;;1.83;1.40;;;;;;;;;;4987426;28;20034;-76
2022/08/12 01:13:06;;;;;;;1.58;1.33;;;;;;;;;;4994325;28;20037;-76
2022/08/12 01:15:32;;;;;;;2.33;1.40;;;;;;;;;;4997875;28;20034;-75
2022/08/12 01:17:58;;;;;;;2.13;1.67;;;;;;;;;;4992649;28;20046;-76
2022/08/12 01:20:36;;;;;;;1.13;0.80;;;;;;;;;;4995290;28;20022;-75
2022/08/12 01:23:45;;;;;;;1.20;1.05;;;;;;;;;;4993188;28;20022;-75
2022/08/12 01:26:17;;;;;;;1.50;1.08;;;;;;;;;;4986623;28;20030;-78
2022/08/12 01:28:44;;;;;;;1.52;1.10;;;;;;;;;;4994954;28;20030;-78
2022/08/12 01:31:10;;;;;;;2.63;1.08;;;;;;;;;;4975071;28;20035;-78
2022/08/12 01:33:44;;;;;;;1.80;1.35;;;;;;;;;;4991957;28;20476;-77
2022/08/12 01:36:10;;;;;;;0.68;0.65;;;;;;;;;;4995594;28;20034;-77
2022/08/12 01:38:37;;;;;;;2.22;1.58;;;;;;;;;;4995596;28;20420;-78
2022/08/12 01:41:03;;;;;;;2.13;1.63;;;;;;;;;;4993500;28;20112;-78
2022/08/12 01:43:31;;;;;;;1.77;1.17;;;;;;;;;;4996283;28;20026;-77
2022/08/12 01:46:13;;;;;;;2.72;1.40;;;;;;;;;;4989207;28;20050;-77
2022/08/12 01:48:51;;;;;;;1.77;1.17;;;;;;;;;;4979918;28;20034;-77
2022/08/12 01:51:25;;;;;;;1.58;1.40;;;;;;;;;;4994111;28;20372;-76
2022/08/12 01:54:05;;;;;;;1.13;0.88;;;;;;;;;;4994856;28;20037;-76
2022/08/12 01:56:41;;;;;;;1.55;1.30;;;;;;;;;;4994320;28;20037;-76
2022/08/12 02:01:56;;;;;;;1.42;1.13;;;;;;;;;;4996544;28;20053;-76
2022/08/12 02:14:00;;;;;;;2.38;1.30;;;;;;;;;;4984177;28;20096;-74
2022/08/12 02:17:03;;;;;;;1.30;1.20;;;;;;;;;;4995141;28;20034;-76
2022/08/12 02:19:53;;;;;;;1.20;1.10;;;;;;;;;;4994147;28;20341;-77
2022/08/12 02:22:32;;;;;;;4.22;1.23;;;;;;;;;;4991684;28;20085;-76
2022/08/12 02:25:07;;;;;;;1.15;1.02;;;;;;;;;;4993571;28;20084;-77
2022/08/12 02:27:38;;;;;;;1.73;1.33;;;;;;;;;;4994191;28;20401;-77
2022/08/12 02:30:07;;;;;;;1.83;1.30;;;;;;;;;;4993132;28;20026;-77
2022/08/12 02:32:39;;;;;;;2.17;1.20;;;;;;;;;;4992865;28;20457;-76
2022/08/12 02:35:08;;;;;;;1.25;1.15;;;;;;;;;;4993610;28;20045;-77
2022/08/12 02:37:35;;;;;;;1.73;1.10;;;;;;;;;;4994798;28;20033;-76
2022/08/12 02:40:02;;;;;;;2.03;1.83;;;;;;;;;;4978608;28;20172;-77
2022/08/12 02:42:30;;;;;;;1.95;1.35;;;;;;;;;;4992772;28;20018;-76
2022/08/12 02:44:56;;;;;;;1.80;1.25;;;;;;;;;;4976885;28;20092;-77
2022/08/12 02:47:23;;;;;;;2.83;1.40;;;;;;;;;;4993503;28;20034;-76
2022/08/12 02:49:54;;;;;;;1.27;1.05;;;;;;;;;;4993021;28;20026;-77
2022/08/12 02:52:22;;;;;;;1.10;1.00;;;;;;;;;;4993492;28;20022;-76
2022/08/12 02:54:50;;;;;;;3.05;1.13;;;;;;;;;;4993720;28;20030;-76
2022/08/12 02:57:19;;;;;;;2.17;1.08;;;;;;;;;;4977371;28;20022;-76
2022/08/12 02:59:50;;;;;;;2.40;1.25;;;;;;;;;;4977678;28;20065;-77
2022/08/12 03:02:19;;;;;;;1.90;1.25;;;;;;;;;;4993248;28;20030;-76
2022/08/12 03:04:55;;;;;;;1.33;1.00;;;;;;;;;;4993004;28;20037;-76
2022/08/12 03:07:29;;;;;;;1.08;1.00;;;;;;;;;;4993524;28;20109;-76
2022/08/12 03:10:04;;;;;;;1.70;1.10;;;;;;;;;;4993537;28;20026;-76
2022/08/12 03:12:37;;;;;;;1.55;1.45;;;;;;;;;;4994004;28;20037;-76
2022/08/12 03:15:13;;;;;;;1.40;0.95;;;;;;;;;;4993484;28;20030;-75
2022/08/12 03:17:57;;;;;;;4.18;1.23;;;;;;;;;;4993395;28;20022;-76
2022/08/12 03:20:23;;;;;;;2.17;1.65;;;;;;;;;;4981689;28;20034;-76
2022/08/12 03:22:51;;;;;;;1.35;1.25;;;;;;;;;;4993939;28;20031;-77
2022/08/12 03:25:23;;;;;;;4.32;2.03;;;;;;;;;;4992905;28;20053;-76
2022/08/12 03:27:54;;;;;;;3.22;1.77;;;;;;;;;;4992131;28;20040;-76
2022/08/12 03:30:21;;;;;;;1.92;1.60;;;;;;;;;;4994108;28;20034;-76
2022/08/12 03:32:50;;;;;;;2.47;1.10;;;;;;;;;;4993185;28;20027;-76
2022/08/12 03:35:26;;;;;;;4.72;1.25;;;;;;;;;;4992445;28;20341;-76
2022/08/12 03:37:56;;;;;;;2.35;1.75;;;;;;;;;;4993999;28;20468;-77
2022/08/12 04:00:24;;;;;;;2.70;1.23;;;;;;;;;;4978851;28;20044;-75
2022/08/12 04:03:00;;;;;;;2.22;1.90;;;;;;;;;;5004695;28;20030;-77
2022/08/12 04:05:27;;;;;;;1.88;1.40;;;;;;;;;;4977971;28;20022;-75
2022/08/12 04:07:53;;;;;;;3.97;1.90;;;;;;;;;;4978270;28;20409;-75
2022/08/12 04:10:19;;;;;;;2.42;1.75;;;;;;;;;;4995899;28;20029;-76
2022/08/12 04:13:15;;;;;;;1.33;1.23;;;;;;;;;;4998151;28;20037;-75
2022/08/12 04:15:44;;;;;;;2.20;1.23;;;;;;;;;;4996555;28;20454;-76
2022/08/12 04:18:11;;;;;;;2.10;1.30;;;;;;;;;;4997480;28;20365;-75
2022/08/12 04:20:37;;;;;;;2.92;2.03;;;;;;;;;;4997987;28;20076;-76
2022/08/12 04:23:04;;;;;;;2.15;1.65;;;;;;;;;;4980237;28;20438;-76
2022/08/12 04:25:30;;;;;;;2.22;1.60;;;;;;;;;;4997682;28;20026;-75
2022/08/12 04:27:58;;;;;;;1.48;1.38;;;;;;;;;;4993962;28;20026;-76
2022/08/12 04:30:23;;;;;;;2.28;1.23;;;;;;;;;;4997472;28;20343;-75
2022/08/12 04:32:49;;;;;;;2.13;1.50;;;;;;;;;;4996989;28;20041;-76
2022/08/12 04:35:18;;;;;;;2.40;1.80;;;;;;;;;;4996856;28;20026;-76
2022/08/12 04:37:45;;;;;;;2.05;1.10;;;;;;;;;;4995828;28;20026;-76
2022/08/12 04:40:15;;;;;;;2.85;2.00;;;;;;;;;;4978147;28;20065;-76
2022/08/12 04:42:41;;;;;;;1.75;1.65;;;;;;;;;;4985768;28;20113;-75
2022/08/12 04:45:07;;;;;;;2.95;2.08;;;;;;;;;;4982911;28;20176;-75
2022/08/12 04:47:32;;;;;;;1.73;1.52;;;;;;;;;;4994910;28;20038;-76
2022/08/12 04:49:58;;;;;;;2.72;2.25;;;;;;;;;;4995656;28;20034;-76
2022/08/12 04:52:23;;;;;;;2.00;1.45;;;;;;;;;;4993482;28;20113;-77
2022/08/12 04:54:49;;;;;;;2.75;1.88;;;;;;;;;;4995860;28;20062;-76
2022/08/12 04:57:14;;;;;;;2.53;1.45;;;;;;;;;;4993854;28;20038;-78
2022/08/12 04:59:40;;;;;;;2.70;1.95;;;;;;;;;;4996605;28;20565;-77
2022/08/12 05:02:08;;;;;;;2.15;1.67;;;;;;;;;;4994156;28;20037;-76
2022/08/12 05:04:36;;;;;;;2.55;1.83;;;;;;;;;;4977574;28;20082;-77
2022/08/12 05:07:04;;;;;;;3.40;1.98;;;;;;;;;;4988755;28;20415;-76
2022/08/12 05:09:32;;;;;;;2.60;1.75;;;;;;;;;;4992517;28;20026;-77
2022/08/12 05:11:57;;;;;;;3.00;1.50;;;;;;;;;;4983450;28;20050;-77
2022/08/12 05:14:25;;;;;;;2.50;1.95;;;;;;;;;;4994913;28;20066;-75
2022/08/12 05:16:50;;;;;;;2.72;1.52;;;;;;;;;;4989403;28;20030;-75
2022/08/12 05:19:15;;;;;;;1.85;1.35;;;;;;;;;;4994843;28;20026;-75
2022/08/12 05:21:45;;;;;;;4.57;1.60;;;;;;;;;;4995173;28;20041;-76
2022/08/12 05:24:10;;;;;;;2.45;2.05;;;;;;;;;;4977544;28;20409;-77
2022/08/12 05:26:35;;;;;;;2.15;1.40;;;;;;;;;;4986124;28;20026;-76
2022/08/12 05:29:04;;;;;;;2.97;1.80;;;;;;;;;;4994975;28;20492;-75
2022/08/12 05:31:29;;;;;;;2.88;1.67;;;;;;;;;;4995666;28;20026;-74
2022/08/12 05:33:55;;;;;;;9.15;2.63;;;;;;;;;;4996347;28;20045;-76
2022/08/12 05:36:22;;;;;;;1.63;1.45;;;;;;;;;;4978621;28;20049;-75
2022/08/12 05:38:56;;;;;;;1.83;1.27;;;;;;;;;;4995204;28;20022;-75
2022/08/12 05:41:30;;;;;;;2.88;1.95;;;;;;;;;;4994599;28;20022;-76
2022/08/12 05:44:00;;;;;;;2.78;1.80;;;;;;;;;;4993708;28;20040;-75
2022/08/12 05:46:29;;;;;;;4.18;1.60;;;;;;;;;;4994461;28;20105;-77
2022/08/12 05:49:02;;;;;;;13.75;3.45;;;;;;;;;;4995440;28;20065;-75
2022/08/12 05:51:36;;;;;;;2.60;1.80;;;;;;;;;;4993338;28;20026;-76
2022/08/12 05:54:04;;;;;;;2.75;1.80;;;;;;;;;;4996135;28;20034;-75
2022/08/12 05:56:36;;;;;;;3.33;2.15;;;;;;;;;;4994023;28;20117;-75
2022/08/12 05:59:06;;;;;;;2.25;1.73;;;;;;;;;;4993287;28;20680;-76
2022/08/12 06:01:33;;;;;;;1.83;1.42;;;;;;;;;;4992610;28;20053;-76
2022/08/12 06:03:59;;;;;;;5.13;2.80;;;;;;;;;;4994312;28;20474;-77
2022/08/12 06:06:25;;;;;;;1.63;1.42;;;;;;;;;;4995200;28;20030;-75
2022/08/12 06:08:54;;;;;;;2.78;1.80;;;;;;;;;;4993885;28;20116;-78
2022/08/12 06:11:23;;;;;;;4.03;2.40;;;;;;;;;;4994788;28;20030;-77
2022/08/12 06:13:54;;;;;;;3.08;1.65;;;;;;;;;;4993714;28;20026;-76
2022/08/12 06:16:21;;;;;;;1.83;1.33;;;;;;;;;;4994826;28;20373;-76
2022/08/12 06:18:50;;;;;;;2.72;1.73;;;;;;;;;;4992381;28;20044;-76
2022/08/12 06:21:17;;;;;;;2.60;1.80;;;;;;;;;;4992789;28;20077;-75
2022/08/12 06:23:44;;;;;;;5.80;1.63;;;;;;;;;;4993508;28;20037;-75
2022/08/12 06:26:14;;;;;;;3.70;2.03;;;;;;;;;;4993957;28;20033;-76
2022/08/12 06:28:42;;;;;;;2.85;2.15;;;;;;;;;;4994178;28;20026;-76
2022/08/12 06:31:09;;;;;;;1.98;1.50;;;;;;;;;;4993893;28;20026;-76
2022/08/12 06:33:37;;;;;;;1.92;1.40;;;;;;;;;;4994016;28;20044;-77
2022/08/12 06:36:04;;;;;;;2.83;1.42;;;;;;;;;;4994552;28;20036;-76
2022/08/12 06:38:30;;;;;;;2.25;1.25;;;;;;;;;;4993910;28;20054;-75
2022/08/12 06:43:43;;;;;;;1.35;1.17;;;;;;;;;;4993036;28;20061;-76
2022/08/12 06:46:09;;;;;;;2.45;1.50;;;;;;;;;;4991736;28;20030;-75
2022/08/12 06:48:36;;;;;;;2.50;1.60;;;;;;;;;;4987901;28;20019;-76
2022/08/12 06:51:02;;;;;;;5.35;1.60;;;;;;;;;;4990813;28;20053;-76
2022/08/12 06:53:33;;;;;;;1.73;1.48;;;;;;;;;;4982142;28;20033;-75
2022/08/12 06:55:59;;;;;;;1.30;1.20;;;;;;;;;;4994037;28;20030;-76
2022/08/12 06:58:32;;;;;;;1.83;1.60;;;;;;;;;;4993998;28;20037;-77
2022/08/12 07:00:58;;;;;;;1.83;1.50;;;;;;;;;;4994099;28;20026;-77
2022/08/12 07:03:27;;;;;;;1.63;1.48;;;;;;;;;;4976293;28;20029;-77
2022/08/12 07:06:13;;;;;;;3.55;1.85;;;;;;;;;;4994662;28;20034;-77
2022/08/12 07:08:42;;;;;;;1.45;1.35;;;;;;;;;;4993719;28;20058;-77
2022/08/12 07:11:10;;;;;;;3.33;1.75;;;;;;;;;;4994782;28;20454;-76
2022/08/12 07:13:42;;;;;;;1.80;1.67;;;;;;;;;;4990465;28;20025;-77
2022/08/12 07:16:50;;;;;;;3.45;1.63;;;;;;;;;;4991488;28;20038;-77
2022/08/12 07:19:11;;;;;;;1.02;0.98;;;;;;;;;;4994267;28;20096;-78
2022/08/12 07:21:38;;;;;;;1.02;1.00;;;;;;;;;;4994948;28;20037;-78
2022/08/12 07:24:08;;;;;;;1.90;1.33;;;;;;;;;;4993240;28;20026;-78
2022/08/12 07:26:37;;;;;;;1.08;0.98;;;;;;;;;;4994559;28;20073;-78
2022/08/12 07:29:03;;;;;;;1.75;1.33;;;;;;;;;;4994654;28;20065;-78
2022/08/12 07:31:29;;;;;;;1.27;1.10;;;;;;;;;;4993786;28;20404;-77
2022/08/12 07:33:55;;;;;;;1.42;1.05;;;;;;;;;;4994537;28;20112;-77
2022/08/12 07:36:21;;;;;;;1.08;0.98;;;;;;;;;;4993473;28;20138;-77
2022/08/12 07:38:47;;;;;;;1.10;1.00;;;;;;;;;;4993206;28;20057;-79
2022/08/12 07:41:33;;;;;;;3.22;1.33;;;;;;;;;;4994129;28;20023;-78
2022/08/12 07:44:05;;;;;;;1.10;1.00;;;;;;;;;;4993768;28;20117;-78
2022/08/12 07:46:35;;;;;;;1.05;0.95;;;;;;;;;;4990145;28;20026;-76
2022/08/12 07:49:07;;;;;;;1.02;1.00;;;;;;;;;;4993272;28;20097;-79
2022/08/12 07:51:34;;;;;;;1.08;0.98;;;;;;;;;;4992925;28;20342;-78
2022/08/12 07:54:01;;;;;;;2.15;1.35;;;;;;;;;;4993022;28;20085;-77
2022/08/12 07:56:30;;;;;;;1.52;1.02;;;;;;;;;;4993949;28;20096;-78
2022/08/12 07:58:57;;;;;;;0.95;0.90;;;;;;;;;;4992377;28;20065;-78
2022/08/12 08:01:25;;;;;;;1.38;1.27;;;;;;;;;;4993660;28;20042;-79
2022/08/12 08:06:41;;;;;;;1.67;0.93;;;;;;;;;;4994551;28;20041;-77
2022/08/12 08:09:12;;;;;;;0.88;0.88;;;;;;;;;;4992694;28;20500;-78
2022/08/12 08:14:28;;;;;;;1.02;1.00;;;;;;;;;;4990492;28;20065;-76
2022/08/12 08:16:56;;;;;;;0.80;0.80;;;;;;;;;;4994656;28;20041;-76
2022/08/12 08:19:22;;;;;;;0.93;0.88;;;;;;;;;;4994470;28;20033;-77
2022/08/12 08:21:53;;;;;;;0.80;0.80;;;;;;;;;;4993303;28;20030;-78
2022/08/12 08:24:19;;;;;;;;;;;;;;;;;;4994060;28;20077;-77
2022/08/12 08:26:48;;;;;;;0.70;0.70;;;;;;;;;;4993905;28;19971;-78
2022/08/12 08:29:14;;;;;;;3.85;1.02;;;;;;;;;;4996152;28;20105;-77
2022/08/12 08:31:42;;;;;;;1.08;0.98;;;;;;;;;;4978420;28;20037;-76
2022/08/12 08:34:14;;;;;;;0.70;0.70;;;;;;;;;;4996169;28;20369;-76
2022/08/12 08:36:39;;;;;;;0.60;0.60;;;;;;;;;;4996915;28;20022;-79
2022/08/12 08:39:09;;;;;;;1.10;1.00;;;;;;;;;;4996671;28;20445;-77
2022/08/12 08:44:22;;;;;;;1.63;1.50;;;;;;;;;;4994551;28;20515;-77
2022/08/12 08:46:54;;;;;;;1.23;0.88;;;;;;;;;;4994810;28;20103;-76
2022/08/12 08:49:21;;;;;;;0.80;0.80;;;;;;;;;;4994343;28;20030;-79
2022/08/12 08:51:46;;;;;;;0.40;0.40;;;;;;;;;;4996833;28;20033;-77
2022/08/12 08:54:17;;;;;;;0.70;0.70;;;;;;;;;;4995941;28;20029;-77
2022/08/12 08:56:43;;;;;;;0.73;0.70;;;;;;;;;;4996420;28;20522;-77
2022/08/12 08:59:10;;;;;;;0.75;0.70;;;;;;;;;;4995728;28;20026;-77
2022/08/12 09:01:36;;;;;;;2.28;1.10;;;;;;;;;;4993765;28;20512;-78
2022/08/12 09:04:01;;;;;;;1.27;1.13;;;;;;;;;;4997281;28;20102;-78
2022/08/12 09:06:26;;;;;;;2.20;1.55;;;;;;;;;;4995383;28;20062;-78
2022/08/12 09:08:52;;;;;;;1.67;0.88;;;;;;;;;;4995723;28;20165;-76
2022/08/12 09:14:06;;;;;;;3.03;2.15;;;;;;;;;;4994586;28;20092;-76
2022/08/12 09:16:49;;;;;;;0.55;0.50;;;;;;;;;;4993511;28;20121;-78
2022/08/12 09:19:30;;;;;;;0.88;0.88;;;;;;;;;;4993554;28;20018;-78
2022/08/12 09:21:59;;;;;;;0.50;0.50;;;;;;;;;;4996367;28;20041;-76
2022/08/12 09:24:36;;;;;;;0.70;0.70;;;;;;;;;;4995308;28;20039;-77
2022/08/12 09:27:19;;;;;;;1.05;0.95;;;;;;;;;;4994127;28;20022;-77
2022/08/12 09:29:48;;;;;;;0.30;0.30;;;;;;;;;;4978346;28;20110;-77
2022/08/12 09:32:27;;;;;;;1.08;0.95;;;;;;;;;;4994939;28;20025;-77
2022/08/12 09:34:53;;;;;;;0.60;0.60;;;;;;;;;;4994128;28;20090;-82
2022/08/12 09:37:40;;;;;;;0.47;0.47;;;;;;;;;;4994730;28;20421;-79
2022/08/12 09:40:06;;;;;;;0.52;0.40;;;;;;;;;;4992110;28;20484;-79
2022/08/12 09:45:26;;;;;;;3.20;0.70;;;;;;;;;;4994864;28;20041;-78
2022/08/12 09:47:52;;;;;;;1.58;0.85;;;;;;;;;;4995115;28;20026;-79
2022/08/12 09:50:18;;;;;;;1.88;0.90;;;;;;;;;;4995120;28;20105;-78
2022/08/12 09:52:51;;;;;;;0.73;0.52;;;;;;;;;;4996127;28;20106;-78
2022/08/12 09:55:19;;;;;;;0.88;0.80;;;;;;;;;;4993800;28;20062;-77
2022/08/12 09:57:45;;;;;;;0.75;0.75;;;;;;;;;;4995944;28;20018;-77
2022/08/12 10:00:12;;;;;;;0.65;0.60;;;;;;;;;;4995744;28;20109;-75
2022/08/12 10:02:38;;;;;;;0.85;0.63;;;;;;;;;;4993890;28;20476;-78
2022/08/12 10:05:08;;;;;;;0.75;0.57;;;;;;;;;;4995773;28;20046;-77
2022/08/12 10:07:34;;;;;;;0.95;0.85;;;;;;;;;;4995857;28;20026;-77
2022/08/12 10:10:01;;;;;;;0.68;0.60;;;;;;;;;;4995823;28;20023;-77
2022/08/12 10:15:13;;;;;;;0.70;0.70;;;;;;;;;;4994979;28;20041;-79
2022/08/12 10:17:38;;;;;;;0.73;0.73;;;;;;;;;;4995625;28;20109;-80
2022/08/12 10:20:04;;;;;;;1.10;0.88;;;;;;;;;;4995659;28;20106;-79
2022/08/12 10:22:38;;;;;;;1.10;0.98;;;;;;;;;;4994349;28;20018;-81
2022/08/12 10:31:10;;;;;;;0.45;0.45;;;;;;;;;;4996001;28;20092;-79
2022/08/12 10:33:39;;;;;;;0.93;0.63;;;;;;;;;;4993580;28;20115;-83
2022/08/12 10:36:04;;;;;;;0.85;0.60;;;;;;;;;;4994085;28;20030;-79
2022/08/12 10:38:32;;;;;;;0.50;0.50;;;;;;;;;;4990313;28;20022;-81
2022/08/12 10:43:46;;;;;;;1.13;0.85;;;;;;;;;;4995757;28;20034;-78
2022/08/12 10:46:20;;;;;;;0.67;0.67;;;;;;;;;;4993662;28;20038;-79
2022/08/12 10:48:47;;;;;;;0.60;0.60;;;;;;;;;;4991256;28;20030;-81
2022/08/12 10:51:17;;;;;;;0.63;0.63;;;;;;;;;;4994457;28;20105;-80
2022/08/12 10:53:46;;;;;;;0.70;0.70;;;;;;;;;;4993206;28;20029;-79
2022/08/12 10:56:15;;;;;;;0.52;0.50;;;;;;;;;;4994203;28;20284;-79
2022/08/12 10:58:40;;;;;;;1.50;1.00;;;;;;;;;;4992807;28;20085;-79
2022/08/12 11:01:09;;;;;;;1.58;1.13;;;;;;;;;;4991840;28;20030;-78
2022/08/12 11:03:41;;;;;;;0.73;0.70;;;;;;;;;;4993408;28;20030;-80
2022/08/12 11:06:20;;;;;;;0.63;0.55;;;;;;;;;;4989749;28;20026;-79
2022/08/12 11:08:49;;;;;;;0.75;0.65;;;;;;;;;;4990140;28;20080;-79
2022/08/12 11:11:19;;;;;;;0.50;0.50;;;;;;;;;;4991092;28;20449;-79
2022/08/12 11:13:45;;;;;;;0.47;0.45;;;;;;;;;;4994210;28;20513;-80
2022/08/12 11:16:12;;;;;;;2.08;0.80;;;;;;;;;;4993264;28;20087;-78
2022/08/12 11:18:43;;;;;;;0.60;0.60;;;;;;;;;;4991047;28;20054;-79
2022/08/12 11:21:12;;;;;;;0.77;0.60;;;;;;;;;;4991447;28;20046;-76
2022/08/12 11:23:38;;;;;;;0.73;0.70;;;;;;;;;;4994087;28;20042;-79
2022/08/12 11:26:05;;;;;;;0.65;0.65;;;;;;;;;;4994419;28;20056;-77
2022/08/12 11:28:30;;;;;;;0.50;0.50;;;;;;;;;;4989177;28;20021;-78
2022/08/12 11:30:55;;;;;;;0.82;0.52;;;;;;;;;;4988836;28;20023;-81
2022/08/12 11:33:21;;;;;;;0.73;0.70;;;;;;;;;;4969192;28;20029;-80
2022/08/12 11:35:50;;;;;;;1.67;1.13;;;;;;;;;;4991910;28;20041;-76
2022/08/12 11:38:15;;;;;;;0.60;0.60;;;;;;;;;;4992667;28;20382;-79
2022/08/12 11:40:41;;;;;;;0.98;0.85;;;;;;;;;;4992972;28;20085;-77
2022/08/12 11:43:10;;;;;;;0.50;0.50;;;;;;;;;;4993757;28;20394;-79
2022/08/12 11:45:37;;;;;;;0.70;0.70;;;;;;;;;;4990013;28;20026;-81
2022/08/12 11:48:03;;;;;;;1.45;0.75;;;;;;;;;;4993815;28;20023;-82
2022/08/12 11:50:30;;;;;;;0.63;0.50;;;;;;;;;;4990397;28;20029;-76
2022/08/12 11:52:55;;;;;;;0.68;0.68;;;;;;;;;;4993933;28;20030;-77
2022/08/12 11:55:21;;;;;;;0.60;0.60;;;;;;;;;;4991067;28;20034;-77
2022/08/12 11:57:55;;;;;;;0.80;0.70;;;;;;;;;;4993898;28;20018;-81
2022/08/12 12:00:24;;;;;;;1.23;0.98;;;;;;;;;;4987142;28;20378;-75
2022/08/12 12:02:57;;;;;;;3.50;0.60;;;;;;;;;;4993433;28;20030;-83
2022/08/12 12:05:28;;;;;;;0.70;0.70;;;;;;;;;;4991047;28;20030;-80
2022/08/12 12:08:05;;;;;;;0.80;0.80;;;;;;;;;;4990662;28;20026;-80
2022/08/12 12:10:30;;;;;;;0.68;0.68;;;;;;;;;;4973479;28;20054;-81
2022/08/12 12:12:55;;;;;;;0.45;0.45;;;;;;;;;;4989982;28;20084;-82
2022/08/12 12:15:22;;;;;;;1.80;0.80;;;;;;;;;;4991538;28;20058;-80
2022/08/12 12:17:50;;;;;;;0.43;0.43;;;;;;;;;;4991118;28;20022;-84
2022/08/12 12:20:18;;;;;;;0.50;0.50;;;;;;;;;;4973959;28;20027;-79
2022/08/12 12:22:49;;;;;;;0.50;0.50;;;;;;;;;;4993385;28;20109;-79
2022/08/12 12:25:17;;;;;;;0.47;0.47;;;;;;;;;;4975779;28;20038;-83
2022/08/12 12:27:53;;;;;;;0.57;0.57;;;;;;;;;;4983129;28;20260;-83
2022/08/12 12:30:21;;;;;;;1.10;1.00;;;;;;;;;;4988744;28;20346;-83
2022/08/12 12:32:46;;;;;;;0.40;0.40;;;;;;;;;;4991412;28;20026;-83
2022/08/12 12:35:13;;;;;;;0.60;0.60;;;;;;;;;;4975298;28;20369;-82
2022/08/12 12:37:59;;;;;;;0.45;0.45;;;;;;;;;;4990198;28;20441;-83
2022/08/12 12:40:29;;;;;;;0.50;0.50;;;;;;;;;;4992122;28;20026;-83
2022/08/12 12:42:55;;;;;;;0.70;0.70;;;;;;;;;;4992557;28;20022;-78
2022/08/12 12:45:23;;;;;;;0.40;0.40;;;;;;;;;;4990213;28;20436;-81
2022/08/12 12:48:27;;;;;;;0.40;0.40;;;;;;;;;;4990968;28;20103;-82
2022/08/12 12:53:46;;;;;;;0.93;0.75;;;;;;;;;;4990045;28;20066;-83
2022/08/12 12:56:22;;;;;;;0.55;0.55;;;;;;;;;;4957589;28;20062;-79
2022/08/12 12:58:52;;;;;;;0.30;0.30;;;;;;;;;;4986564;28;20476;-84
2022/08/12 13:01:24;;;;;;;0.30;0.30;;;;;;;;;;4987913;28;20034;-83
2022/08/12 13:03:58;;;;;;;0.40;0.40;;;;;;;;;;4988440;28;20041;-83
2022/08/12 13:06:28;;;;;;;0.93;0.60;;;;;;;;;;4986756;28;20022;-81
2022/08/12 13:09:03;;;;;;;3.33;0.80;;;;;;;;;;4986256;28;20042;-80
2022/08/12 13:11:49;;;;;;;0.50;0.50;;;;;;;;;;4989474;28;20050;-79
2022/08/12 13:14:14;;;;;;;0.30;0.30;;;;;;;;;;4986952;28;20022;-80
2022/08/12 13:16:42;;;;;;;0.50;0.50;;;;;;;;;;4971771;28;20458;-80
2022/08/12 13:19:08;;;;;;;0.85;0.70;;;;;;;;;;4985851;28;20088;-81
2022/08/12 13:22:16;;;;;;;0.77;0.68;;;;;;;;;;4989358;28;20465;-81
2022/08/12 13:24:41;;;;;;;0.30;0.30;;;;;;;;;;4987189;28;20082;-77
2022/08/12 13:27:07;;;;;;;3.28;0.40;;;;;;;;;;4984146;28;20105;-77
2022/08/12 13:29:43;;;;;;;0.57;0.40;;;;;;;;;;4971225;28;20078;-79
2022/08/12 13:32:08;;;;;;;0.40;0.40;;;;;;;;;;4987335;28;20031;-77
2022/08/12 13:34:36;;;;;;;0.63;0.30;;;;;;;;;;4986042;28;20049;-77
2022/08/12 13:37:03;;;;;;;0.50;0.50;;;;;;;;;;4986692;28;20089;-80
2022/08/12 13:39:34;;;;;;;0.50;0.43;;;;;;;;;;4987175;28;20034;-78
2022/08/12 13:42:00;;;;;;;;;;;;;;;;;;4990109;28;20049;-79
2022/08/12 13:44:29;;;;;;;3.20;0.87;;;;;;;;;;4985387;28;19918;-79
2022/08/12 13:46:56;;;;;;;0.47;0.47;;;;;;;;;;4989318;28;20026;-80
2022/08/12 13:49:22;;;;;;;0.60;0.55;;;;;;;;;;4993596;28;20022;-78
2022/08/12 13:51:53;;;;;;;1.30;0.80;;;;;;;;;;4985790;28;20366;-80
2022/08/12 13:54:21;;;;;;;1.02;0.88;;;;;;;;;;4990706;28;20041;-80
2022/08/12 13:56:46;;;;;;;0.60;0.60;;;;;;;;;;4989282;28;20056;-77
2022/08/12 13:59:12;;;;;;;1.50;0.95;;;;;;;;;;4981949;28;20445;-82
2022/08/12 14:01:37;;;;;;;1.00;0.60;;;;;;;;;;4989414;28;20361;-76
2022/08/12 14:04:03;;;;;;;0.40;0.40;;;;;;;;;;4989864;28;20031;-83
2022/08/12 14:06:28;;;;;;;0.40;0.40;;;;;;;;;;4989825;28;20113;-78
2022/08/12 14:08:54;;;;;;;0.93;0.65;;;;;;;;;;4984311;28;20704;-79
2022/08/12 14:11:19;;;;;;;1.70;0.77;;;;;;;;;;4989211;28;20405;-80
2022/08/12 14:13:47;;;;;;;0.57;0.57;;;;;;;;;;4984519;28;20494;-80
2022/08/12 14:16:45;;;;;;;0.28;0.28;;;;;;;;;;4986997;28;20027;-85
2022/08/12 14:19:10;;;;;;;0.22;0.22;;;;;;;;;;4990417;28;20093;-82
2022/08/12 14:21:37;;;;;;;0.60;0.60;;;;;;;;;;4993053;28;20027;-81
2022/08/12 14:24:07;;;;;;;5.88;1.23;;;;;;;;;;4996884;28;20041;-80
2022/08/12 14:26:37;;;;;;;0.73;0.57;;;;;;;;;;4999002;28;20446;-80
2022/08/12 14:29:02;;;;;;;0.82;0.50;;;;;;;;;;4978157;28;20742;-84
2022/08/12 14:31:28;;;;;;;0.47;0.47;;;;;;;;;;4994954;28;20092;-83
2022/08/12 14:33:54;;;;;;;1.77;0.95;;;;;;;;;;4995241;28;20080;-81
2022/08/12 14:36:23;;;;;;;1.35;1.17;;;;;;;;;;4995893;28;20573;-82
2022/08/12 14:38:52;;;;;;;0.40;0.40;;;;;;;;;;4976403;28;20084;-91
2022/08/12 14:41:20;;;;;;;1.40;1.00;;;;;;;;;;4994475;28;20037;-84
2022/08/12 14:43:50;;;;;;;0.47;0.47;;;;;;;;;;5007766;28;20653;-90
2022/08/12 14:46:19;;;;;;;0.63;0.60;;;;;;;;;;4997616;28;20053;-87
2022/08/12 14:48:50;;;;;;;0.75;0.55;;;;;;;;;;4994347;28;20064;-87
2022/08/12 14:51:18;;;;;;;0.85;0.85;;;;;;;;;;4991699;28;20018;-87
2022/08/12 14:53:44;;;;;;;0.77;0.30;;;;;;;;;;4997120;28;20042;-89
2022/08/12 14:56:11;;;;;;;1.10;0.57;;;;;;;;;;4986794;28;20022;-86
2022/08/12 14:58:36;;;;;;;0.57;0.52;;;;;;;;;;4980432;28;20022;-86
2022/08/12 15:03:46;;;;;;;0.52;0.52;;;;;;;;;;4990309;28;20061;-90
2022/08/12 15:06:15;;;;;;;0.85;0.52;;;;;;;;;;4991770;28;20480;-84
2022/08/12 15:08:55;;;;;;;0.75;0.57;;;;;;;;;;4990344;28;20041;-81
2022/08/12 15:11:22;;;;;;;1.33;0.80;;;;;;;;;;4985560;28;20129;-84
2022/08/12 15:13:48;;;;;;;0.30;0.30;;;;;;;;;;4991457;28;20122;-83
2022/08/12 15:16:15;;;;;;;0.65;0.57;;;;;;;;;;4988607;28;20124;-86
2022/08/12 15:18:42;;;;;;;0.80;0.57;;;;;;;;;;4988414;28;20026;-84
2022/08/12 15:21:12;;;;;;;0.75;0.60;;;;;;;;;;4988837;28;20084;-84
2022/08/12 15:23:38;;;;;;;0.28;0.28;;;;;;;;;;4988665;28;20034;-84
2022/08/12 15:26:10;;;;;;;0.93;0.68;;;;;;;;;;4985143;28;20034;-84
2022/08/12 15:28:40;;;;;;;0.52;0.40;;;;;;;;;;5004439;28;20039;-84
2022/08/12 15:31:12;;;;;;;0.53;0.50;;;;;;;;;;4988180;28;20438;-88
2022/08/12 15:33:38;;;;;;;0.50;0.40;;;;;;;;;;4989376;28;20072;-84
2022/08/12 15:36:06;;;;;;;0.60;0.47;;;;;;;;;;4988091;28;20034;-83
2022/08/12 15:38:36;;;;;;;1.05;0.40;;;;;;;;;;4977245;28;20045;-87
2022/08/12 15:41:26;;;;;;;0.88;0.52;;;;;;;;;;4994876;28;20038;-87
2022/08/12 15:44:22;;;;;;;0.77;0.63;;;;;;;;;;4979481;28;20030;-85
2022/08/12 15:46:47;;;;;;;1.27;1.00;;;;;;;;;;4996025;28;20529;-88
2022/08/12 15:49:13;;;;;;;0.32;0.32;;;;;;;;;;4979871;28;20253;-89
2022/08/12 15:51:38;;;;;;;0.25;0.25;;;;;;;;;;4981128;28;20389;-87
2022/08/12 15:54:04;;;;;;;1.50;0.30;;;;;;;;;;4980914;28;20069;-90
2022/08/12 15:56:32;;;;;;;0.50;0.50;;;;;;;;;;4979702;28;20445;-85
2022/08/12 15:58:58;;;;;;;0.20;0.20;;;;;;;;;;4979458;28;20041;-85
2022/08/12 16:01:29;;;;;;;0.50;0.50;;;;;;;;;;4995636;28;20045;-88
2022/08/12 16:03:58;;;;;;;1.95;0.57;;;;;;;;;;4995249;28;20092;-89
2022/08/12 16:06:27;;;;;;;0.55;0.50;;;;;;;;;;4995744;28;20034;-88
2022/08/12 16:08:56;;;;;;;4.22;1.60;;;;;;;;;;4995640;28;20030;-88
2022/08/12 16:14:31;;;;;;;0.75;0.47;;;;;;;;;;4989458;28;20100;-85
2022/08/12 16:16:58;;;;;;;0.57;0.50;;;;;;;;;;4992264;28;20057;-87
2022/08/12 16:19:23;;;;;;;0.52;0.47;;;;;;;;;;4991878;28;20026;-88
2022/08/12 16:21:49;;;;;;;0.85;0.68;;;;;;;;;;4993055;28;20634;-89
2022/08/12 16:24:17;;;;;;;0.85;0.55;;;;;;;;;;4991446;28;20431;-88
2022/08/12 16:26:45;;;;;;;1.20;0.55;;;;;;;;;;4993827;28;20449;-84
2022/08/12 16:29:12;;;;;;;0.93;0.52;;;;;;;;;;5000595;28;20014;-89
2022/08/12 16:31:41;;;;;;;0.50;0.50;;;;;;;;;;4996875;28;20460;-90
2022/08/12 16:34:14;;;;;;;0.20;0.20;;;;;;;;;;4997618;28;20026;-91
2022/08/12 16:36:43;;;;;;;0.10;0.10;;;;;;;;;;4993933;28;20027;-85
2022/08/12 16:39:09;;;;;;;0.32;0.30;;;;;;;;;;4994593;28;20018;-88
2022/08/12 16:41:38;;;;;;;0.77;0.60;;;;;;;;;;4976454;28;20641;-90
2022/08/12 16:44:07;;;;;;;1.73;0.75;;;;;;;;;;4975108;28;20029;-91
2022/08/12 16:46:39;;;;;;;0.25;0.25;;;;;;;;;;4993664;28;20082;-92
2022/08/12 16:49:06;;;;;;;0.77;0.60;;;;;;;;;;4990695;28;20034;-87
2022/08/12 16:51:32;;;;;;;0.60;0.40;;;;;;;;;;4991099;28;20026;-89
2022/08/12 16:53:57;;;;;;;0.55;0.30;;;;;;;;;;4993380;28;20026;-90
2022/08/12 16:56:25;;;;;;;2.83;0.30;;;;;;;;;;4991865;28;20449;-86
2022/08/12 16:58:52;;;;;;;0.73;0.40;;;;;;;;;;4994691;28;20054;-91